sensor_id;sensor_type;location;lat;lon;timestamp;P1;durP1;ratioP1;P2;durP2;ratioP2
22007;SDS011;11168;56.976;24.168;2023-03-21T00:02:05;7.60;;;4.60;;
22007;SDS011;11168;56.976;24.168;2023-03-21T00:04:32;7.55;;;4.05;;
22007;SDS011;11168;56.976;24.168;2023-03-21T00:07:15;7.72;;;4.35;;
22007;SDS011;11168;56.976;24.168;2023-03-21T00:09:42;7.72;;;4.63;;
22007;SDS011;11168;56.976;24.168;2023-03-21T00:12:09;8.40;;;4.60;;
22007;SDS011;11168;56.976;24.168;2023-03-21T00:14:37;6.78;;;4.30;;
22007;SDS011;11168;56.976;24.168;2023-03-21T00:17:04;9.15;;;4.72;;
22007;SDS011;11168;56.976;24.168;2023-03-21T00:19:31;8.38;;;4.85;;
22007;SDS011;11168;56.976;24.168;2023-03-21T00:21:58;6.78;;;4.50;;
22007;SDS011;11168;56.976;24.168;2023-03-21T00:24:34;8.20;;;5.00;;
22007;SDS011;11168;56.976;24.168;2023-03-21T00:27:01;8.05;;;4.85;;
22007;SDS011;11168;56.976;24.168;2023-03-21T00:29:49;9.85;;;5.50;;
22007;SDS011;11168;56.976;24.168;2023-03-21T00:32:16;8.18;;;5.03;;
22007;SDS011;11168;56.976;24.168;2023-03-21T00:34:44;9.00;;;5.05;;
22007;SDS011;11168;56.976;24.168;2023-03-21T00:37:27;8.05;;;5.07;;
22007;SDS011;11168;56.976;24.168;2023-03-21T00:39:54;10.18;;;6.00;;
22007;SDS011;11168;56.976;24.168;2023-03-21T00:42:21;10.35;;;5.55;;
22007;SDS011;11168;56.976;24.168;2023-03-21T00:44:48;10.32;;;5.50;;
22007;SDS011;11168;56.976;24.168;2023-03-21T00:47:16;9.63;;;5.65;;
22007;SDS011;11168;56.976;24.168;2023-03-21T00:49:43;11.93;;;5.53;;
22007;SDS011;11168;56.976;24.168;2023-03-21T00:52:10;11.07;;;6.13;;
22007;SDS011;11168;56.976;24.168;2023-03-21T00:54:47;10.50;;;5.85;;
22007;SDS011;11168;56.976;24.168;2023-03-21T00:57:14;9.95;;;5.88;;
22007;SDS011;11168;56.976;24.168;2023-03-21T00:59:42;10.88;;;5.90;;
22007;SDS011;11168;56.976;24.168;2023-03-21T01:02:09;11.88;;;6.45;;
22007;SDS011;11168;56.976;24.168;2023-03-21T01:04:40;12.68;;;6.43;;
22007;SDS011;11168;56.976;24.168;2023-03-21T01:07:07;11.40;;;6.18;;
22007;SDS011;11168;56.976;24.168;2023-03-21T01:09:34;11.82;;;6.32;;
22007;SDS011;11168;56.976;24.168;2023-03-21T01:12:01;11.60;;;6.30;;
22007;SDS011;11168;56.976;24.168;2023-03-21T01:14:29;11.73;;;6.25;;
22007;SDS011;11168;56.976;24.168;2023-03-21T01:16:56;11.75;;;6.32;;
22007;SDS011;11168;56.976;24.168;2023-03-21T01:19:23;12.52;;;6.57;;
22007;SDS011;11168;56.976;24.168;2023-03-21T01:22:14;12.00;;;6.22;;
22007;SDS011;11168;56.976;24.168;2023-03-21T01:24:41;10.27;;;5.70;;
22007;SDS011;11168;56.976;24.168;2023-03-21T01:27:22;9.97;;;5.07;;
22007;SDS011;11168;56.976;24.168;2023-03-21T01:29:49;9.98;;;5.07;;
22007;SDS011;11168;56.976;24.168;2023-03-21T01:32:15;9.13;;;4.90;;
22007;SDS011;11168;56.976;24.168;2023-03-21T01:34:42;8.90;;;5.25;;
22007;SDS011;11168;56.976;24.168;2023-03-21T01:37:09;10.00;;;5.60;;
22007;SDS011;11168;56.976;24.168;2023-03-21T01:39:36;10.70;;;5.38;;
22007;SDS011;11168;56.976;24.168;2023-03-21T01:42:03;11.38;;;5.47;;
22007;SDS011;11168;56.976;24.168;2023-03-21T01:44:30;12.55;;;5.68;;
22007;SDS011;11168;56.976;24.168;2023-03-21T01:46:57;10.07;;;5.47;;
22007;SDS011;11168;56.976;24.168;2023-03-21T01:49:41;8.25;;;4.70;;
22007;SDS011;11168;56.976;24.168;2023-03-21T01:55:04;9.30;;;5.07;;
22007;SDS011;11168;56.976;24.168;2023-03-21T01:57:36;8.52;;;4.80;;
22007;SDS011;11168;56.976;24.168;2023-03-21T02:00:27;8.90;;;4.65;;
22007;SDS011;11168;56.976;24.168;2023-03-21T02:02:55;9.15;;;5.25;;
22007;SDS011;11168;56.976;24.168;2023-03-21T02:08:23;9.50;;;5.15;;
22007;SDS011;11168;56.976;24.168;2023-03-21T02:11:04;10.00;;;5.60;;
22007;SDS011;11168;56.976;24.168;2023-03-21T02:13:33;10.20;;;5.20;;
22007;SDS011;11168;56.976;24.168;2023-03-21T02:16:05;8.05;;;4.90;;
22007;SDS011;11168;56.976;24.168;2023-03-21T02:18:55;7.07;;;4.40;;
22007;SDS011;11168;56.976;24.168;2023-03-21T02:25:00;10.40;;;5.18;;
22007;SDS011;11168;56.976;24.168;2023-03-21T02:39:14;9.75;;;5.07;;
22007;SDS011;11168;56.976;24.168;2023-03-21T02:42:20;7.60;;;5.10;;
22007;SDS011;11168;56.976;24.168;2023-03-21T02:45:21;10.30;;;5.68;;
22007;SDS011;11168;56.976;24.168;2023-03-21T02:47:52;6.25;;;4.60;;
22007;SDS011;11168;56.976;24.168;2023-03-21T02:50:25;8.20;;;5.57;;
22007;SDS011;11168;56.976;24.168;2023-03-21T02:53:08;8.45;;;4.90;;
22007;SDS011;11168;56.976;24.168;2023-03-21T02:58:08;9.50;;;5.40;;
22007;SDS011;11168;56.976;24.168;2023-03-21T03:00:38;9.18;;;5.72;;
22007;SDS011;11168;56.976;24.168;2023-03-21T03:03:08;12.98;;;6.15;;
22007;SDS011;11168;56.976;24.168;2023-03-21T03:05:51;12.43;;;6.60;;
22007;SDS011;11168;56.976;24.168;2023-03-21T03:11:25;11.85;;;6.88;;
22007;SDS011;11168;56.976;24.168;2023-03-21T03:22:38;11.77;;;6.68;;
22007;SDS011;11168;56.976;24.168;2023-03-21T03:25:50;10.93;;;6.20;;
22007;SDS011;11168;56.976;24.168;2023-03-21T03:28:29;9.90;;;6.00;;
22007;SDS011;11168;56.976;24.168;2023-03-21T03:31:03;11.20;;;6.45;;
22007;SDS011;11168;56.976;24.168;2023-03-21T03:33:36;10.27;;;6.18;;
22007;SDS011;11168;56.976;24.168;2023-03-21T03:36:08;9.82;;;5.97;;
22007;SDS011;11168;56.976;24.168;2023-03-21T03:38:53;12.85;;;7.38;;
22007;SDS011;11168;56.976;24.168;2023-03-21T03:41:23;12.43;;;7.47;;
22007;SDS011;11168;56.976;24.168;2023-03-21T03:43:54;11.55;;;8.23;;
22007;SDS011;11168;56.976;24.168;2023-03-21T03:46:30;13.93;;;7.93;;
22007;SDS011;11168;56.976;24.168;2023-03-21T03:49:07;11.43;;;6.78;;
22007;SDS011;11168;56.976;24.168;2023-03-21T03:54:29;14.10;;;7.57;;
22007;SDS011;11168;56.976;24.168;2023-03-21T03:57:05;17.48;;;7.60;;
22007;SDS011;11168;56.976;24.168;2023-03-21T03:59:35;13.00;;;6.75;;
22007;SDS011;11168;56.976;24.168;2023-03-21T04:02:03;9.60;;;6.28;;
22007;SDS011;11168;56.976;24.168;2023-03-21T04:04:31;11.05;;;6.22;;
22007;SDS011;11168;56.976;24.168;2023-03-21T04:06:58;8.20;;;5.45;;
22007;SDS011;11168;56.976;24.168;2023-03-21T04:09:25;8.27;;;5.43;;
22007;SDS011;11168;56.976;24.168;2023-03-21T04:12:09;10.90;;;6.60;;
22007;SDS011;11168;56.976;24.168;2023-03-21T04:14:36;9.90;;;5.75;;
22007;SDS011;11168;56.976;24.168;2023-03-21T04:17:11;9.38;;;6.28;;
22007;SDS011;11168;56.976;24.168;2023-03-21T04:19:38;8.60;;;5.63;;
22007;SDS011;11168;56.976;24.168;2023-03-21T04:22:05;8.82;;;5.70;;
22007;SDS011;11168;56.976;24.168;2023-03-21T04:24:32;9.80;;;6.30;;
22007;SDS011;11168;56.976;24.168;2023-03-21T04:26:59;10.90;;;6.70;;
22007;SDS011;11168;56.976;24.168;2023-03-21T04:29:26;19.10;;;10.60;;
22007;SDS011;11168;56.976;24.168;2023-03-21T04:31:55;19.05;;;10.55;;
22007;SDS011;11168;56.976;24.168;2023-03-21T04:34:22;12.73;;;8.68;;
22007;SDS011;11168;56.976;24.168;2023-03-21T04:36:53;11.90;;;7.78;;
22007;SDS011;11168;56.976;24.168;2023-03-21T04:39:21;11.15;;;7.30;;
22007;SDS011;11168;56.976;24.168;2023-03-21T04:41:49;12.70;;;7.78;;
22007;SDS011;11168;56.976;24.168;2023-03-21T04:44:17;12.57;;;8.40;;
22007;SDS011;11168;56.976;24.168;2023-03-21T04:46:44;16.83;;;10.07;;
22007;SDS011;11168;56.976;24.168;2023-03-21T04:49:11;17.13;;;10.10;;
22007;SDS011;11168;56.976;24.168;2023-03-21T04:51:38;16.98;;;10.13;;
22007;SDS011;11168;56.976;24.168;2023-03-21T04:54:06;10.30;;;6.13;;
22007;SDS011;11168;56.976;24.168;2023-03-21T04:56:32;6.03;;;4.53;;
22007;SDS011;11168;56.976;24.168;2023-03-21T04:59:02;8.65;;;4.93;;
22007;SDS011;11168;56.976;24.168;2023-03-21T05:01:32;10.63;;;7.18;;
22007;SDS011;11168;56.976;24.168;2023-03-21T05:04:00;16.70;;;10.68;;
22007;SDS011;11168;56.976;24.168;2023-03-21T05:06:28;19.25;;;11.95;;
22007;SDS011;11168;56.976;24.168;2023-03-21T05:08:56;26.10;;;15.60;;
22007;SDS011;11168;56.976;24.168;2023-03-21T05:11:31;16.75;;;11.55;;
22007;SDS011;11168;56.976;24.168;2023-03-21T05:14:01;11.82;;;8.07;;
22007;SDS011;11168;56.976;24.168;2023-03-21T05:16:28;9.30;;;5.57;;
22007;SDS011;11168;56.976;24.168;2023-03-21T05:18:56;6.35;;;4.85;;
22007;SDS011;11168;56.976;24.168;2023-03-21T05:21:24;5.25;;;3.65;;
22007;SDS011;11168;56.976;24.168;2023-03-21T05:23:55;5.13;;;3.00;;
22007;SDS011;11168;56.976;24.168;2023-03-21T05:26:23;4.13;;;3.08;;
22007;SDS011;11168;56.976;24.168;2023-03-21T05:28:50;5.88;;;2.90;;
22007;SDS011;11168;56.976;24.168;2023-03-21T05:31:18;4.80;;;2.90;;
22007;SDS011;11168;56.976;24.168;2023-03-21T05:33:46;5.20;;;2.55;;
22007;SDS011;11168;56.976;24.168;2023-03-21T05:36:14;2.67;;;1.63;;
22007;SDS011;11168;56.976;24.168;2023-03-21T05:38:41;1.58;;;1.27;;
22007;SDS011;11168;56.976;24.168;2023-03-21T05:41:11;1.63;;;1.30;;
22007;SDS011;11168;56.976;24.168;2023-03-21T05:43:39;1.85;;;1.30;;
22007;SDS011;11168;56.976;24.168;2023-03-21T05:46:06;1.15;;;1.00;;
22007;SDS011;11168;56.976;24.168;2023-03-21T05:48:34;1.98;;;1.10;;
22007;SDS011;11168;56.976;24.168;2023-03-21T05:51:01;1.00;;;0.88;;
22007;SDS011;11168;56.976;24.168;2023-03-21T05:53:29;1.00;;;0.60;;
22007;SDS011;11168;56.976;24.168;2023-03-21T05:55:56;1.10;;;0.70;;
22007;SDS011;11168;56.976;24.168;2023-03-21T05:58:23;1.08;;;0.90;;
22007;SDS011;11168;56.976;24.168;2023-03-21T06:00:50;1.23;;;1.13;;
22007;SDS011;11168;56.976;24.168;2023-03-21T06:03:17;2.63;;;1.00;;
22007;SDS011;11168;56.976;24.168;2023-03-21T06:05:44;1.50;;;0.77;;
22007;SDS011;11168;56.976;24.168;2023-03-21T06:08:11;1.42;;;0.90;;
22007;SDS011;11168;56.976;24.168;2023-03-21T06:10:38;1.85;;;1.30;;
22007;SDS011;11168;56.976;24.168;2023-03-21T06:13:05;2.63;;;1.50;;
22007;SDS011;11168;56.976;24.168;2023-03-21T06:15:32;4.47;;;3.30;;
22007;SDS011;11168;56.976;24.168;2023-03-21T06:17:59;8.18;;;6.13;;
22007;SDS011;11168;56.976;24.168;2023-03-21T06:20:26;12.45;;;7.90;;
22007;SDS011;11168;56.976;24.168;2023-03-21T06:22:53;11.90;;;7.63;;
22007;SDS011;11168;56.976;24.168;2023-03-21T06:25:20;11.05;;;6.65;;
22007;SDS011;11168;56.976;24.168;2023-03-21T06:27:47;9.13;;;5.70;;
22007;SDS011;11168;56.976;24.168;2023-03-21T06:32:43;6.85;;;3.92;;
22007;SDS011;11168;56.976;24.168;2023-03-21T06:35:10;4.47;;;2.47;;
22007;SDS011;11168;56.976;24.168;2023-03-21T06:37:39;2.28;;;1.80;;
22007;SDS011;11168;56.976;24.168;2023-03-21T06:40:06;1.52;;;1.05;;
22007;SDS011;11168;56.976;24.168;2023-03-21T06:42:35;0.90;;;0.90;;
22007;SDS011;11168;56.976;24.168;2023-03-21T06:45:02;1.60;;;0.88;;
22007;SDS011;11168;56.976;24.168;2023-03-21T06:47:29;1.10;;;0.90;;
22007;SDS011;11168;56.976;24.168;2023-03-21T06:49:56;1.25;;;0.80;;
22007;SDS011;11168;56.976;24.168;2023-03-21T06:52:23;2.75;;;1.30;;
22007;SDS011;11168;56.976;24.168;2023-03-21T06:54:49;2.28;;;1.08;;
22007;SDS011;11168;56.976;24.168;2023-03-21T06:57:16;3.10;;;1.42;;
22007;SDS011;11168;56.976;24.168;2023-03-21T06:59:46;3.38;;;1.38;;
22007;SDS011;11168;56.976;24.168;2023-03-21T07:02:13;1.35;;;0.80;;
22007;SDS011;11168;56.976;24.168;2023-03-21T07:04:40;2.17;;;0.80;;
22007;SDS011;11168;56.976;24.168;2023-03-21T07:07:07;1.52;;;0.90;;
22007;SDS011;11168;56.976;24.168;2023-03-21T07:09:34;2.05;;;0.73;;
22007;SDS011;11168;56.976;24.168;2023-03-21T07:12:01;1.17;;;0.70;;
22007;SDS011;11168;56.976;24.168;2023-03-21T07:14:28;2.25;;;0.88;;
22007;SDS011;11168;56.976;24.168;2023-03-21T07:16:57;1.13;;;0.68;;
22007;SDS011;11168;56.976;24.168;2023-03-21T07:19:24;1.02;;;0.80;;
22007;SDS011;11168;56.976;24.168;2023-03-21T07:21:51;1.42;;;1.08;;
22007;SDS011;11168;56.976;24.168;2023-03-21T07:24:18;3.40;;;1.10;;
22007;SDS011;11168;56.976;24.168;2023-03-21T07:26:45;2.88;;;1.17;;
22007;SDS011;11168;56.976;24.168;2023-03-21T07:29:12;1.50;;;1.20;;
22007;SDS011;11168;56.976;24.168;2023-03-21T07:31:40;2.55;;;0.95;;
22007;SDS011;11168;56.976;24.168;2023-03-21T07:34:07;2.67;;;1.17;;
22007;SDS011;11168;56.976;24.168;2023-03-21T07:36:34;2.55;;;1.35;;
22007;SDS011;11168;56.976;24.168;2023-03-21T07:39:02;1.85;;;1.08;;
22007;SDS011;11168;56.976;24.168;2023-03-21T07:41:31;1.95;;;1.40;;
22007;SDS011;11168;56.976;24.168;2023-03-21T07:43:58;2.53;;;1.75;;
22007;SDS011;11168;56.976;24.168;2023-03-21T07:46:25;1.90;;;1.60;;
22007;SDS011;11168;56.976;24.168;2023-03-21T07:48:52;3.53;;;2.00;;
22007;SDS011;11168;56.976;24.168;2023-03-21T07:51:19;2.95;;;2.50;;
22007;SDS011;11168;56.976;24.168;2023-03-21T07:53:46;3.92;;;1.77;;
22007;SDS011;11168;56.976;24.168;2023-03-21T07:56:14;5.80;;;3.45;;
22007;SDS011;11168;56.976;24.168;2023-03-21T07:58:41;9.00;;;3.42;;
22007;SDS011;11168;56.976;24.168;2023-03-21T08:01:08;10.07;;;5.65;;
22007;SDS011;11168;56.976;24.168;2023-03-21T08:03:36;4.15;;;3.08;;
22007;SDS011;11168;56.976;24.168;2023-03-21T08:06:03;3.40;;;2.40;;
22007;SDS011;11168;56.976;24.168;2023-03-21T08:08:30;2.53;;;1.80;;
22007;SDS011;11168;56.976;24.168;2023-03-21T08:10:58;2.40;;;1.40;;
22007;SDS011;11168;56.976;24.168;2023-03-21T08:13:25;3.70;;;2.30;;
22007;SDS011;11168;56.976;24.168;2023-03-21T08:15:53;3.60;;;2.67;;
22007;SDS011;11168;56.976;24.168;2023-03-21T08:18:19;6.18;;;3.55;;
22007;SDS011;11168;56.976;24.168;2023-03-21T08:20:50;6.38;;;3.92;;
22007;SDS011;11168;56.976;24.168;2023-03-21T08:23:18;7.75;;;4.65;;
22007;SDS011;11168;56.976;24.168;2023-03-21T08:25:50;9.63;;;5.50;;
22007;SDS011;11168;56.976;24.168;2023-03-21T08:28:18;9.45;;;6.07;;
22007;SDS011;11168;56.976;24.168;2023-03-21T08:30:46;11.38;;;7.38;;
22007;SDS011;11168;56.976;24.168;2023-03-21T08:33:15;14.50;;;9.10;;
22007;SDS011;11168;56.976;24.168;2023-03-21T08:35:44;18.25;;;9.52;;
22007;SDS011;11168;56.976;24.168;2023-03-21T08:38:11;20.90;;;11.18;;
22007;SDS011;11168;56.976;24.168;2023-03-21T08:40:39;19.65;;;10.90;;
22007;SDS011;11168;56.976;24.168;2023-03-21T08:43:06;18.17;;;10.45;;
22007;SDS011;11168;56.976;24.168;2023-03-21T08:45:33;21.60;;;11.68;;
22007;SDS011;11168;56.976;24.168;2023-03-21T08:48:01;22.50;;;11.05;;
22007;SDS011;11168;56.976;24.168;2023-03-21T08:50:29;20.55;;;11.40;;
22007;SDS011;11168;56.976;24.168;2023-03-21T08:52:57;23.23;;;11.13;;
22007;SDS011;11168;56.976;24.168;2023-03-21T08:55:24;17.02;;;9.10;;
22007;SDS011;11168;56.976;24.168;2023-03-21T08:57:53;16.20;;;9.00;;
22007;SDS011;11168;56.976;24.168;2023-03-21T09:00:21;23.10;;;12.40;;
22007;SDS011;11168;56.976;24.168;2023-03-21T09:02:48;25.27;;;13.43;;
22007;SDS011;11168;56.976;24.168;2023-03-21T09:05:20;29.05;;;13.93;;
22007;SDS011;11168;56.976;24.168;2023-03-21T09:07:48;27.83;;;14.75;;
22007;SDS011;11168;56.976;24.168;2023-03-21T09:10:16;28.35;;;14.38;;
22007;SDS011;11168;56.976;24.168;2023-03-21T09:12:47;27.48;;;14.38;;
22007;SDS011;11168;56.976;24.168;2023-03-21T09:15:16;29.63;;;16.85;;
22007;SDS011;11168;56.976;24.168;2023-03-21T09:17:45;28.52;;;16.83;;
22007;SDS011;11168;56.976;24.168;2023-03-21T09:20:18;28.52;;;16.38;;
22007;SDS011;11168;56.976;24.168;2023-03-21T09:22:51;30.85;;;17.40;;
22007;SDS011;11168;56.976;24.168;2023-03-21T09:25:19;28.65;;;17.15;;
22007;SDS011;11168;56.976;24.168;2023-03-21T09:27:46;33.08;;;17.73;;
22007;SDS011;11168;56.976;24.168;2023-03-21T09:30:15;31.55;;;18.60;;
22007;SDS011;11168;56.976;24.168;2023-03-21T09:32:44;33.70;;;19.30;;
22007;SDS011;11168;56.976;24.168;2023-03-21T09:35:14;30.08;;;16.85;;
22007;SDS011;11168;56.976;24.168;2023-03-21T09:37:47;26.95;;;16.70;;
22007;SDS011;11168;56.976;24.168;2023-03-21T09:48:38;17.67;;;9.55;;
22007;SDS011;11168;56.976;24.168;2023-03-21T09:51:23;14.43;;;8.20;;
22007;SDS011;11168;56.976;24.168;2023-03-21T09:53:54;15.90;;;7.90;;
22007;SDS011;11168;56.976;24.168;2023-03-21T09:56:25;17.17;;;7.88;;
22007;SDS011;11168;56.976;24.168;2023-03-21T09:58:54;21.95;;;7.35;;
22007;SDS011;11168;56.976;24.168;2023-03-21T10:01:25;14.98;;;7.43;;
22007;SDS011;11168;56.976;24.168;2023-03-21T10:04:07;20.85;;;9.75;;
22007;SDS011;11168;56.976;24.168;2023-03-21T10:06:38;22.75;;;13.15;;
22007;SDS011;11168;56.976;24.168;2023-03-21T10:14:51;16.52;;;9.55;;
22007;SDS011;11168;56.976;24.168;2023-03-21T10:17:20;12.50;;;6.45;;
22007;SDS011;11168;56.976;24.168;2023-03-21T10:22:43;7.32;;;4.28;;
22007;SDS011;11168;56.976;24.168;2023-03-21T10:25:14;5.93;;;4.33;;
22007;SDS011;11168;56.976;24.168;2023-03-21T10:27:44;6.72;;;4.22;;
22007;SDS011;11168;56.976;24.168;2023-03-21T10:30:25;6.22;;;4.38;;
22007;SDS011;11168;56.976;24.168;2023-03-21T10:32:58;2.75;;;2.40;;
22007;SDS011;11168;56.976;24.168;2023-03-21T10:35:31;3.45;;;2.20;;
22007;SDS011;11168;56.976;24.168;2023-03-21T10:38:03;2.15;;;1.80;;
22007;SDS011;11168;56.976;24.168;2023-03-21T10:40:32;4.03;;;2.13;;
22007;SDS011;11168;56.976;24.168;2023-03-21T10:43:14;2.72;;;2.38;;
22007;SDS011;11168;56.976;24.168;2023-03-21T10:45:43;4.10;;;1.98;;
22007;SDS011;11168;56.976;24.168;2023-03-21T10:48:11;3.70;;;2.13;;
22007;SDS011;11168;56.976;24.168;2023-03-21T10:50:39;5.40;;;3.10;;
22007;SDS011;11168;56.976;24.168;2023-03-21T10:53:13;3.40;;;2.10;;
22007;SDS011;11168;56.976;24.168;2023-03-21T10:55:47;2.67;;;1.88;;
22007;SDS011;11168;56.976;24.168;2023-03-21T10:58:18;2.75;;;2.10;;
22007;SDS011;11168;56.976;24.168;2023-03-21T11:00:56;4.25;;;2.10;;
22007;SDS011;11168;56.976;24.168;2023-03-21T11:03:28;3.33;;;2.20;;
22007;SDS011;11168;56.976;24.168;2023-03-21T11:06:02;6.13;;;2.65;;
22007;SDS011;11168;56.976;24.168;2023-03-21T11:08:55;4.00;;;2.63;;
22007;SDS011;11168;56.976;24.168;2023-03-21T11:11:32;4.63;;;2.47;;
22007;SDS011;11168;56.976;24.168;2023-03-21T11:14:04;3.20;;;2.50;;
22007;SDS011;11168;56.976;24.168;2023-03-21T11:16:43;3.75;;;2.47;;
22007;SDS011;11168;56.976;24.168;2023-03-21T11:19:14;3.10;;;2.28;;
22007;SDS011;11168;56.976;24.168;2023-03-21T11:21:43;3.35;;;2.55;;
22007;SDS011;11168;56.976;24.168;2023-03-21T11:24:15;4.63;;;2.58;;
22007;SDS011;11168;56.976;24.168;2023-03-21T11:26:44;2.90;;;2.50;;
22007;SDS011;11168;56.976;24.168;2023-03-21T11:31:52;3.78;;;2.03;;
22007;SDS011;11168;56.976;24.168;2023-03-21T11:34:25;1.88;;;1.75;;
22007;SDS011;11168;56.976;24.168;2023-03-21T11:36:59;1.65;;;1.52;;
22007;SDS011;11168;56.976;24.168;2023-03-21T11:39:35;2.50;;;2.05;;
22007;SDS011;11168;56.976;24.168;2023-03-21T11:42:24;2.65;;;1.70;;
22007;SDS011;11168;56.976;24.168;2023-03-21T11:47:41;2.45;;;1.90;;
22007;SDS011;11168;56.976;24.168;2023-03-21T11:50:19;2.50;;;1.88;;
22007;SDS011;11168;56.976;24.168;2023-03-21T11:56:14;2.65;;;2.10;;
22007;SDS011;11168;56.976;24.168;2023-03-21T12:04:46;3.55;;;1.95;;
22007;SDS011;11168;56.976;24.168;2023-03-21T12:10:25;8.65;;;2.70;;
22007;SDS011;11168;56.976;24.168;2023-03-21T12:24:37;3.10;;;1.35;;
22007;SDS011;11168;56.976;24.168;2023-03-21T12:30:10;1.85;;;1.50;;
22007;SDS011;11168;56.976;24.168;2023-03-21T12:38:24;1.58;;;1.30;;
22007;SDS011;11168;56.976;24.168;2023-03-21T12:44:14;3.28;;;2.30;;
22007;SDS011;11168;56.976;24.168;2023-03-21T12:52:01;1.75;;;1.50;;
22007;SDS011;11168;56.976;24.168;2023-03-21T12:54:52;3.55;;;2.00;;
22007;SDS011;11168;56.976;24.168;2023-03-21T12:57:31;3.30;;;2.20;;
22007;SDS011;11168;56.976;24.168;2023-03-21T13:02:52;4.57;;;2.40;;
22007;SDS011;11168;56.976;24.168;2023-03-21T13:05:34;3.13;;;1.98;;
22007;SDS011;11168;56.976;24.168;2023-03-21T13:10:30;4.25;;;2.13;;
22007;SDS011;11168;56.976;24.168;2023-03-21T13:18:59;4.93;;;1.88;;
22007;SDS011;11168;56.976;24.168;2023-03-21T13:21:42;3.40;;;1.90;;
22007;SDS011;11168;56.976;24.168;2023-03-21T13:24:32;3.60;;;1.98;;
22007;SDS011;11168;56.976;24.168;2023-03-21T13:27:13;2.67;;;1.48;;
22007;SDS011;11168;56.976;24.168;2023-03-21T13:29:56;1.45;;;1.30;;
22007;SDS011;11168;56.976;24.168;2023-03-21T13:32:27;2.38;;;1.52;;
22007;SDS011;11168;56.976;24.168;2023-03-21T13:35:00;5.55;;;1.55;;
22007;SDS011;11168;56.976;24.168;2023-03-21T13:37:37;2.15;;;1.70;;
22007;SDS011;11168;56.976;24.168;2023-03-21T13:40:19;1.75;;;1.42;;
22007;SDS011;11168;56.976;24.168;2023-03-21T13:42:52;5.50;;;1.85;;
22007;SDS011;11168;56.976;24.168;2023-03-21T13:45:30;2.83;;;1.45;;
22007;SDS011;11168;56.976;24.168;2023-03-21T13:47:58;1.17;;;1.00;;
22007;SDS011;11168;56.976;24.168;2023-03-21T13:55:30;2.65;;;1.25;;
22007;SDS011;11168;56.976;24.168;2023-03-21T14:01:12;2.22;;;1.58;;
22007;SDS011;11168;56.976;24.168;2023-03-21T14:03:43;2.70;;;1.20;;
22007;SDS011;11168;56.976;24.168;2023-03-21T14:06:12;2.13;;;1.35;;
22007;SDS011;11168;56.976;24.168;2023-03-21T14:08:42;1.75;;;1.58;;
22007;SDS011;11168;56.976;24.168;2023-03-21T14:11:12;5.00;;;1.50;;
22007;SDS011;11168;56.976;24.168;2023-03-21T14:13:44;3.63;;;1.60;;
22007;SDS011;11168;56.976;24.168;2023-03-21T14:16:16;2.85;;;1.50;;
22007;SDS011;11168;56.976;24.168;2023-03-21T14:18:51;2.40;;;1.60;;
22007;SDS011;11168;56.976;24.168;2023-03-21T14:21:27;3.13;;;2.00;;
22007;SDS011;11168;56.976;24.168;2023-03-21T14:26:37;3.03;;;1.63;;
22007;SDS011;11168;56.976;24.168;2023-03-21T14:29:08;3.88;;;1.55;;
22007;SDS011;11168;56.976;24.168;2023-03-21T14:31:52;2.90;;;2.10;;
22007;SDS011;11168;56.976;24.168;2023-03-21T14:34:20;3.85;;;1.92;;
22007;SDS011;11168;56.976;24.168;2023-03-21T14:36:49;5.85;;;1.50;;
22007;SDS011;11168;56.976;24.168;2023-03-21T14:39:26;2.42;;;1.40;;
22007;SDS011;11168;56.976;24.168;2023-03-21T14:42:05;1.67;;;1.52;;
22007;SDS011;11168;56.976;24.168;2023-03-21T14:44:38;4.40;;;1.30;;
22007;SDS011;11168;56.976;24.168;2023-03-21T14:49:49;1.80;;;1.52;;
22007;SDS011;11168;56.976;24.168;2023-03-21T14:52:18;2.88;;;2.28;;
22007;SDS011;11168;56.976;24.168;2023-03-21T14:54:55;1.90;;;1.50;;
22007;SDS011;11168;56.976;24.168;2023-03-21T14:57:25;2.28;;;1.63;;
22007;SDS011;11168;56.976;24.168;2023-03-21T14:59:55;3.20;;;2.08;;
22007;SDS011;11168;56.976;24.168;2023-03-21T15:02:29;3.88;;;2.08;;
22007;SDS011;11168;56.976;24.168;2023-03-21T15:07:52;6.32;;;2.13;;
22007;SDS011;11168;56.976;24.168;2023-03-21T15:10:27;6.18;;;2.35;;
22007;SDS011;11168;56.976;24.168;2023-03-21T15:12:57;6.35;;;2.40;;
22007;SDS011;11168;56.976;24.168;2023-03-21T15:15:27;2.80;;;1.70;;
22007;SDS011;11168;56.976;24.168;2023-03-21T15:17:55;3.10;;;1.63;;
22007;SDS011;11168;56.976;24.168;2023-03-21T15:20:28;1.60;;;1.50;;
22007;SDS011;11168;56.976;24.168;2023-03-21T15:25:30;2.97;;;1.83;;
22007;SDS011;11168;56.976;24.168;2023-03-21T15:27:59;5.60;;;2.60;;
22007;SDS011;11168;56.976;24.168;2023-03-21T15:30:27;4.95;;;2.20;;
22007;SDS011;11168;56.976;24.168;2023-03-21T15:32:57;6.38;;;2.30;;
22007;SDS011;11168;56.976;24.168;2023-03-21T15:35:36;3.45;;;2.72;;
22007;SDS011;11168;56.976;24.168;2023-03-21T15:41:12;3.15;;;2.22;;
22007;SDS011;11168;56.976;24.168;2023-03-21T15:43:40;15.98;;;8.65;;
22007;SDS011;11168;56.976;24.168;2023-03-21T15:46:14;6.10;;;2.80;;
22007;SDS011;11168;56.976;24.168;2023-03-21T15:48:43;4.43;;;2.28;;
22007;SDS011;11168;56.976;24.168;2023-03-21T15:51:18;2.60;;;2.15;;
22007;SDS011;11168;56.976;24.168;2023-03-21T15:53:47;6.45;;;2.40;;
22007;SDS011;11168;56.976;24.168;2023-03-21T15:56:17;3.78;;;2.13;;
22007;SDS011;11168;56.976;24.168;2023-03-21T15:58:47;5.43;;;2.20;;
22007;SDS011;11168;56.976;24.168;2023-03-21T16:01:18;3.90;;;1.98;;
22007;SDS011;11168;56.976;24.168;2023-03-21T16:03:48;5.35;;;2.92;;
22007;SDS011;11168;56.976;24.168;2023-03-21T16:06:22;3.35;;;2.40;;
22007;SDS011;11168;56.976;24.168;2023-03-21T16:09:16;5.18;;;2.70;;
22007;SDS011;11168;56.976;24.168;2023-03-21T16:11:53;5.72;;;2.85;;
22007;SDS011;11168;56.976;24.168;2023-03-21T16:14:22;3.58;;;2.58;;
22007;SDS011;11168;56.976;24.168;2023-03-21T16:16:53;3.40;;;2.60;;
22007;SDS011;11168;56.976;24.168;2023-03-21T16:19:21;6.78;;;2.85;;
22007;SDS011;11168;56.976;24.168;2023-03-21T16:21:49;6.30;;;2.88;;
22007;SDS011;11168;56.976;24.168;2023-03-21T16:24:17;6.20;;;3.47;;
22007;SDS011;11168;56.976;24.168;2023-03-21T16:26:45;5.90;;;3.75;;
22007;SDS011;11168;56.976;24.168;2023-03-21T16:29:16;9.38;;;3.65;;
22007;SDS011;11168;56.976;24.168;2023-03-21T16:31:47;4.47;;;3.00;;
22007;SDS011;11168;56.976;24.168;2023-03-21T16:34:14;4.82;;;2.55;;
22007;SDS011;11168;56.976;24.168;2023-03-21T16:36:43;8.32;;;4.05;;
22007;SDS011;11168;56.976;24.168;2023-03-21T16:39:13;6.28;;;2.90;;
22007;SDS011;11168;56.976;24.168;2023-03-21T16:41:41;4.22;;;2.40;;
22007;SDS011;11168;56.976;24.168;2023-03-21T16:44:08;3.70;;;2.20;;
22007;SDS011;11168;56.976;24.168;2023-03-21T16:46:37;4.53;;;2.63;;
22007;SDS011;11168;56.976;24.168;2023-03-21T16:49:04;4.88;;;3.50;;
22007;SDS011;11168;56.976;24.168;2023-03-21T16:51:32;6.65;;;3.55;;
22007;SDS011;11168;56.976;24.168;2023-03-21T16:54:01;5.13;;;3.60;;
22007;SDS011;11168;56.976;24.168;2023-03-21T16:59:03;9.43;;;5.00;;
22007;SDS011;11168;56.976;24.168;2023-03-21T17:01:33;6.63;;;4.38;;
22007;SDS011;11168;56.976;24.168;2023-03-21T17:04:03;5.88;;;4.40;;
22007;SDS011;11168;56.976;24.168;2023-03-21T17:06:30;9.40;;;5.03;;
22007;SDS011;11168;56.976;24.168;2023-03-21T17:08:58;11.73;;;4.70;;
22007;SDS011;11168;56.976;24.168;2023-03-21T17:11:26;10.07;;;5.18;;